Terminal Aerodrome Forecast
Issued by NWS

Home | Current Version | Previous Version | Text Only | Print | Product List | Glossary On
Versions: 1 2 3 4 5 6 7 8 9 10 11 12 13 14 15
000
FTUS44 KBMX 271140
TAFANB
TAF
KANB 271140Z 2712/2812 07008KT P6SM VCSH BKN080 OVC110
     FM271700 08008KT 6SM SHRA BR BKN025 OVC050
     FM272000 08006KT P6SM VCSH BKN015 OVC040
     FM272300 07006KT 4SM BR OVC007=

USA.gov is the U.S. government's official web portal to all federal, state and local government web resources and services.